Time;durP1;ratioP1;P1;durP2;ratioP2;P2;SDS_P1;SDS_P2;PMS_P1;PMS_P2;Temp;Humidity;BMP_temperature;BMP_pressure;BME280_temperature;BME280_humidity;BME280_pressure;Samples;Min_cycle;Max_cycle;Signal;HPM_P1;HPM_P2
2021/03/10 00:00:05;;;;;;;;;;;;;;;-6.49;100.00;101243.84;5071062;28;19925;-70
2021/03/10 00:02:37;;;;;;;;;;;;;;;-6.50;100.00;101239.47;5071093;28;20327;-70
2021/03/10 00:05:04;;;;;;;;;;;;;;;-6.50;100.00;101239.47;5070631;28;19928;-70
2021/03/10 00:07:30;;;;;;;;;;;;;;;-6.57;100.00;101239.47;5071134;28;19924;-70
2021/03/10 00:09:56;;;;;;;;;;;;;;;-6.57;100.00;101247.38;5070549;28;19935;-70
2021/03/10 00:12:22;;;;;;;;;;;;;;;-6.61;100.00;101248.28;5071022;28;19959;-70
2021/03/10 00:14:48;;;;;;;;;;;;;;;-6.63;100.00;101242.09;5070907;28;19924;-70
2021/03/10 00:17:14;;;;;;;;;;;;;;;-6.63;100.00;101242.09;5070563;28;20368;-70
2021/03/10 00:19:41;;;;;;;;;;;;;;;-6.67;100.00;101248.28;5052420;28;19963;-71
2021/03/10 00:22:06;;;;;;;;;;;;;;;-6.70;100.00;101245.66;5070742;28;19928;-70
2021/03/10 00:24:32;;;;;;;;;;;;;;;-6.73;100.00;101246.53;5071091;28;20526;-70
2021/03/10 00:26:59;;;;;;;;;;;;;;;-6.79;100.00;101249.16;5070447;28;19978;-71
2021/03/10 00:29:25;;;;;;;;;;;;;;;-6.78;100.00;101247.44;5070452;28;19924;-70
2021/03/10 00:31:51;;;;;;;;;;;;;;;-6.78;100.00;101250.06;5070729;28;19974;-70
2021/03/10 00:34:17;;;;;;;;;;;;;;;-6.80;100.00;101247.44;5070610;28;19928;-71
2021/03/10 00:36:42;;;;;;;;;;;;;;;-6.81;100.00;101250.09;5070421;28;20335;-71
2021/03/10 00:39:08;;;;;;;;;;;;;;;-6.82;100.00;101250.97;5070772;28;19928;-70
2021/03/10 00:41:34;;;;;;;;;;;;;;;-6.79;100.00;101254.44;5070885;28;19971;-70
2021/03/10 00:44:01;;;;;;;;;;;;;;;-6.82;100.00;101254.47;5070145;28;19924;-70
2021/03/10 00:46:26;;;;;;;;;;;;;;;-6.80;100.00;101251.81;5070202;28;19924;-70
2021/03/10 00:48:52;;;;;;;;;;;;;;;-6.83;100.00;101249.19;5070537;28;19924;-70
2021/03/10 00:51:18;;;;;;;;;;;;;;;-6.85;100.00;101256.22;5070848;28;19924;-71
2021/03/10 00:53:44;;;;;;;;;;;;;;;-6.91;100.00;101255.38;5070493;28;19982;-70
2021/03/10 00:56:10;;;;;;;;;;;;;;;-6.92;100.00;101252.69;5070333;28;19968;-70
2021/03/10 00:58:36;;;;;;;;;;;;;;;-6.92;100.00;101247.44;5070569;28;19986;-71
2021/03/10 01:01:02;;;;;;;;;;;;;;;-6.92;100.00;101245.69;5070477;28;19947;-71
2021/03/10 01:03:28;;;;;;;;;;;;;;;-6.90;100.00;101243.91;5072174;28;19936;-71
2021/03/10 01:05:54;;;;;;;;;;;;;;;-6.87;100.00;101239.50;5073861;28;19928;-71
2021/03/10 01:08:20;;;;;;;;;;;;;;;-6.86;100.00;101228.94;5074006;28;19948;-71
2021/03/10 01:10:47;;;;;;;;;;;;;;;-6.84;100.00;101236.88;5074054;28;19925;-71
2021/03/10 01:13:13;;;;;;;;;;;;;;;-6.87;100.00;101240.38;5074119;28;19964;-71
2021/03/10 01:15:39;;;;;;;;;;;;;;;-6.88;100.00;101229.84;5073646;28;20413;-71
2021/03/10 01:18:05;;;;;;;;;;;;;;;-6.86;100.00;101228.94;5073758;28;20437;-71
2021/03/10 01:20:31;;;;;;;;;;;;;;;-6.87;100.00;101228.97;5073730;28;19925;-71
2021/03/10 01:22:57;;;;;;;;;;;;;;;-6.88;100.00;101235.09;5073463;28;20515;-71
2021/03/10 01:25:24;;;;;;;;;;;;;;;-6.87;100.00;101243.03;5073669;28;19996;-71
2021/03/10 01:27:50;;;;;;;;;;;;;;;-6.92;100.00;101236.88;5073272;28;19964;-71
2021/03/10 01:30:16;;;;;;;;;;;;;;;-6.95;100.00;101235.13;5073610;28;20302;-71
2021/03/10 01:32:42;;;;;;;;;;;;;;;-6.95;100.00;101229.84;5055697;28;19932;-71
2021/03/10 01:35:10;;;;;;;;;;;;;;;-6.97;100.00;101228.97;5073581;28;19936;-71
2021/03/10 01:37:36;;;;;;;;;;;;;;;-6.99;100.00;101222.78;5073208;28;19931;-71
2021/03/10 01:40:05;;;;;;;;;;;;;;;-6.99;100.00;101217.50;5073088;28;20275;-71
2021/03/10 01:42:31;;;;;;;;;;;;;;;-7.01;100.00;101218.44;5073554;28;19974;-72
2021/03/10 01:44:56;;;;;;;;;;;;;;;-7.05;100.00;101217.53;5073317;28;19925;-72
2021/03/10 01:47:22;;;;;;;;;;;;;;;-7.10;100.00;101221.94;5073042;28;19967;-71
2021/03/10 01:49:48;;;;;;;;;;;;;;;-7.15;100.00;101223.69;5073292;28;20382;-71
2021/03/10 01:52:16;;;;;;;;;;;;;;;-7.16;100.00;101219.28;5073478;28;20007;-71
2021/03/10 01:54:42;;;;;;;;;;;;;;;-7.18;100.00;101216.66;5073118;28;19928;-71
2021/03/10 01:57:08;;;;;;;;;;;;;;;-7.19;100.00;101216.66;5072455;28;19973;-71
2021/03/10 01:59:34;;;;;;;;;;;;;;;-7.20;100.00;101214.88;5072802;28;19978;-72
2021/03/10 02:02:00;;;;;;;;;;;;;;;-7.20;100.00;101206.97;5072989;28;19925;-72
2021/03/10 02:04:26;;;;;;;;;;;;;;;-7.24;100.00;101209.63;5073068;28;19925;-71
2021/03/10 02:06:57;;;;;;;;;;;;;;;-7.32;100.00;101206.13;5072904;28;19965;-71
2021/03/10 02:09:29;;;;;;;;;;;;;;;-7.37;100.00;101207.88;5055157;28;19971;-72
2021/03/10 02:12:01;;;;;;;;;;;;;;;-7.35;100.00;101205.22;5072857;28;19936;-71
2021/03/10 02:14:33;;;;;;;;;;;;;;;-7.33;100.00;101206.97;5072448;28;19924;-70
2021/03/10 02:17:00;;;;;;;;;;;;;;;-7.35;100.00;101211.38;5072295;28;19925;-70
2021/03/10 02:19:45;;;;;;;;;;;;;;;-7.37;100.00;101205.22;5072722;28;20396;-71
2021/03/10 02:22:23;;;;;;;;;;;;;;;-7.33;100.00;101214.91;5072378;28;19928;-71
2021/03/10 02:24:58;;;;;;;;;;;;;;;-7.37;100.00;101207.88;5072582;28;19978;-70
2021/03/10 02:27:41;;;;;;;;;;;;;;;-7.40;100.00;101210.50;5072433;28;19928;-70
2021/03/10 02:30:08;;;;;;;;;;;;;;;-7.41;100.00;101212.25;5072525;28;20302;-70
2021/03/10 02:32:35;;;;;;;;;;;;;;;-7.45;100.00;101207.84;5072364;28;19936;-71
2021/03/10 02:35:01;;;;;;;;;;;;;;;-7.47;100.00;101204.34;5071839;28;19925;-71
2021/03/10 02:37:28;;;;;;;;;;;;;;;-7.48;100.00;101217.50;5072414;28;19966;-71
2021/03/10 02:39:55;;;;;;;;;;;;;;;-7.50;100.00;101214.00;5072468;28;20360;-71
2021/03/10 02:42:21;;;;;;;;;;;;;;;-7.53;100.00;101214.03;5072828;28;19951;-71
2021/03/10 02:44:47;;;;;;;;;;;;;;;-7.51;100.00;101212.25;5072284;28;20402;-71
2021/03/10 02:47:13;;;;;;;;;;;;;;;-7.51;100.00;101217.53;5072146;28;19978;-71
2021/03/10 02:49:40;;;;;;;;;;;;;;;-7.54;100.00;101220.16;5072604;28;19924;-71
2021/03/10 02:52:07;;;;;;;;;;;;;;;-7.57;100.00;101229.81;5072067;28;19939;-71
2021/03/10 02:54:33;;;;;;;;;;;;;;;-7.66;100.00;101227.16;5072139;28;19925;-70
2021/03/10 02:56:59;;;;;;;;;;;;;;;-7.73;100.00;101220.13;5072065;28;19924;-71
2021/03/10 02:59:26;;;;;;;;;;;;;;;-7.77;100.00;101229.78;5072300;28;20033;-71
2021/03/10 03:01:54;;;;;;;;;;;;;;;-7.72;100.00;101226.28;5072428;28;19970;-71
2021/03/10 03:04:20;;;;;;;;;;;;;;;-7.69;100.00;101221.03;5071946;28;19978;-70
2021/03/10 03:06:46;;;;;;;;;;;;;;;-7.68;100.00;101217.50;5071602;28;19924;-70
2021/03/10 03:09:13;;;;;;;;;;;;;;;-7.69;100.00;101221.91;5071693;28;20222;-70
2021/03/10 03:11:39;;;;;;;;;;;;;;;-7.70;100.00;101220.13;5071717;28;20302;-71
2021/03/10 03:14:06;;;;;;;;;;;;;;;-7.71;100.00;101220.13;5071571;28;20429;-71
2021/03/10 03:16:32;;;;;;;;;;;;;;;-7.69;100.00;101218.38;5071510;28;20328;-71
2021/03/10 03:18:58;;;;;;;;;;;;;;;-7.71;100.00;101220.13;5071452;28;19924;-71
2021/03/10 03:21:25;;;;;;;;;;;;;;;-7.74;100.00;101221.91;5071651;28;19924;-71
2021/03/10 03:23:51;;;;;;;;;;;;;;;-7.78;100.00;101219.22;5071621;28;19928;-71
2021/03/10 03:26:17;;;;;;;;;;;;;;;-7.79;100.00;101220.09;5070857;28;19959;-71
2021/03/10 03:28:44;;;;;;;;;;;;;;;-7.81;100.00;101220.09;5071152;28;19924;-71
2021/03/10 03:31:11;;;;;;;;;;;;;;;-7.84;100.00;101219.22;5071292;28;19924;-71
2021/03/10 03:33:37;;;;;;;;;;;;;;;-7.87;100.00;101219.22;5071492;28;19924;-71
2021/03/10 03:36:04;;;;;;;;;;;;;;;-7.94;100.00;101221.81;5070785;28;19931;-71
2021/03/10 03:38:30;;;;;;;;;;;;;;;-7.94;100.00;101218.31;5053593;28;19924;-71
2021/03/10 03:40:56;;;;;;;;;;;;;;;-7.95;100.00;101221.81;5070906;28;19967;-71
2021/03/10 03:43:24;;;;;;;;;;;;;;;-8.01;100.00;101216.56;5071126;28;20371;-71
2021/03/10 03:45:50;;;;;;;;;;;;;;;-8.04;100.00;101217.41;5070677;28;19939;-71
2021/03/10 03:48:18;;;;;;;;;;;;;;;-8.06;100.00;101216.53;5071370;28;19931;-71
2021/03/10 03:50:43;;;;;;;;;;;;;;;-8.03;100.00;101213.00;5071139;28;19925;-71
2021/03/10 03:53:12;;;;;;;;;;;;;;;-8.07;100.00;101217.38;5071423;28;19924;-71
2021/03/10 03:55:37;;;;;;;;;;;;;;;-8.15;100.00;101214.75;5070951;28;19924;-71
2021/03/10 03:58:03;;;;;;;;;;;;;;;-8.18;100.00;101211.22;5071168;28;20244;-71
2021/03/10 04:00:29;;;;;;;;;;;;;;;-8.16;100.00;101210.34;5070926;28;19939;-71
2021/03/10 04:02:55;;;;;;;;;;;;;;;-8.14;100.00;101211.22;5070850;28;20404;-71
2021/03/10 04:05:21;;;;;;;;;;;;;;;-8.17;100.00;101215.63;5071014;28;19925;-71
2021/03/10 04:07:48;;;;;;;;;;;;;;;-8.21;100.00;101217.34;5070985;28;19924;-71
2021/03/10 04:10:14;;;;;;;;;;;;;;;-8.21;100.00;101222.63;5071035;28;19932;-71
2021/03/10 04:12:40;;;;;;;;;;;;;;;-8.26;100.00;101229.63;5071291;28;19978;-71
2021/03/10 04:15:07;;;;;;;;;;;;;;;-8.33;100.00;101231.34;5071138;28;19924;-71
2021/03/10 04:17:33;;;;;;;;;;;;;;;-8.35;100.00;101221.69;5052877;28;19963;-71
2021/03/10 04:19:58;;;;;;;;;;;;;;;-8.42;100.00;101232.19;5070651;28;19959;-71
2021/03/10 04:22:24;;;;;;;;;;;;;;;-8.38;100.00;101238.34;5070991;28;19957;-71
2021/03/10 04:24:50;;;;;;;;;;;;;;;-8.39;100.00;101236.59;5070948;28;20011;-71
2021/03/10 04:27:17;;;;;;;;;;;;;;;-8.38;100.00;101235.72;5070466;28;19925;-71
2021/03/10 04:29:43;;;;;;;;;;;;;;;-8.37;100.00;101228.72;5070694;28;19924;-71
2021/03/10 04:32:08;;;;;;;;;;;;;;;-8.38;100.00;101235.72;5070782;28;19981;-71
2021/03/10 04:34:34;;;;;;;;;;;;;;;-8.47;100.00;101230.41;5070737;28;19958;-71
2021/03/10 04:37:00;;;;;;;;;;;;;;;-8.56;100.00;101233.91;5070276;28;19925;-70
2021/03/10 04:39:26;;;;;;;;;;;;;;;-8.57;100.00;101226.00;5074036;28;19931;-70
2021/03/10 04:41:52;;;;;;;;;;;;;;;-8.53;100.00;101230.41;5074583;28;19925;-70
2021/03/10 04:44:18;;;;;;;;;;;;;;;-8.50;100.00;101228.66;5074571;28;20303;-70
2021/03/10 04:46:44;;;;;;;;;;;;;;;-8.52;100.00;101242.69;5074142;28;20339;-71
2021/03/10 04:49:10;;;;;;;;;;;;;;;-8.55;100.00;101245.31;5074155;28;20007;-71
2021/03/10 04:51:36;;;;;;;;;;;;;;;-8.55;100.00;101243.56;5056742;28;20395;-71
2021/03/10 04:54:02;;;;;;;;;;;;;;;-8.57;100.00;101245.31;5074631;28;19925;-71
2021/03/10 04:56:28;;;;;;;;;;;;;;;-8.59;100.00;101247.94;5073345;28;19931;-71
2021/03/10 04:58:54;;;;;;;;;;;;;;;-8.59;100.00;101250.56;5074107;28;19975;-72
2021/03/10 05:01:20;;;;;;;;;;;;;;;-8.62;100.00;101257.56;5074238;28;20287;-71
2021/03/10 05:03:46;;;;;;;;;;;;;;;-8.64;100.00;101257.56;5074279;28;19924;-71
2021/03/10 05:06:13;;;;;;;;;;;;;;;-8.61;100.00;101259.31;5074223;28;19976;-71
2021/03/10 05:08:38;;;;;;;;;;;;;;;-8.66;100.00;101246.13;5077136;28;20406;-70
2021/03/10 05:11:04;;;;;;;;;;;;;;;-8.68;100.00;101253.13;5074006;28;19924;-70
2021/03/10 05:13:30;;;;;;;;;;;;;;;-8.68;100.00;101247.00;5073552;28;19924;-71
2021/03/10 05:15:56;;;;;;;;;;;;;;;-8.64;100.00;101251.41;5078707;28;20015;-70
2021/03/10 05:18:22;;;;;;;;;;;;;;;-8.65;100.00;101247.88;5094171;28;19924;-71
2021/03/10 05:20:48;;;;;;;;;;;;;;;-8.75;100.00;101239.06;5076397;28;19924;-70
2021/03/10 05:23:14;;;;;;;;;;;;;;;-8.77;100.00;101242.56;5073333;28;20015;-70
2021/03/10 05:25:40;;;;;;;;;;;;;;;-8.78;100.00;101241.69;5085670;28;20014;-70
2021/03/10 05:28:06;;;;;;;;;;;;;;;-8.75;100.00;101248.72;5093739;28;19924;-71
2021/03/10 05:30:32;;;;;;;;;;;;;;;-8.77;100.00;101263.59;5093101;28;19924;-71
2021/03/10 05:32:57;;;;;;;;;;;;;;;-8.75;100.00;101264.50;5093536;28;20286;-70
2021/03/10 05:35:24;;;;;;;;;;;;;;;-8.72;100.00;101264.53;5080768;28;19924;-71
2021/03/10 05:37:50;;;;;;;;;;;;;;;-8.66;100.00;101268.94;5075305;28;19977;-70
2021/03/10 05:40:17;;;;;;;;;;;;;;;-8.62;100.00;101273.34;5085599;28;19932;-70
2021/03/10 05:42:44;;;;;;;;;;;;;;;-8.57;100.00;101271.63;5083811;28;19932;-71
2021/03/10 05:45:11;;;;;;;;;;;;;;;-8.53;100.00;101273.41;5083991;28;19928;-71
2021/03/10 05:47:37;;;;;;;;;;;;;;;-8.37;100.00;101276.97;5073306;28;19931;-71
2021/03/10 05:50:03;;;;;;;;;;;;;;;-8.13;100.00;101272.72;5080306;28;19924;-71
2021/03/10 05:52:32;;;;;;;;;;;;;;;-7.89;100.00;101274.56;5093510;28;19928;-71
2021/03/10 05:54:59;;;;;;;;;;;;;;;-7.68;100.00;101271.13;5078402;28;19967;-71
2021/03/10 05:57:25;;;;;;;;;;;;;;;-7.55;100.00;101273.78;5071731;28;19929;-72
2021/03/10 05:59:51;;;;;;;;;;;;;;;-7.17;100.00;101273.84;5088320;28;19954;-71
2021/03/10 06:02:17;;;;;;;;;;;;;;;-6.71;100.00;101275.56;5077857;28;19981;-71
2021/03/10 06:04:43;;;;;;;;;;;;;;;-6.20;100.00;101267.53;5073088;28;19924;-71
2021/03/10 06:07:18;;;;;;;;;;;;;;;-5.71;100.00;101263.78;5072778;28;19928;-71
2021/03/10 06:09:54;;;;;;;;;;;;;;;-5.24;100.00;101265.25;5085952;28;19930;-71
2021/03/10 06:12:20;;;;;;;;;;;;;;;-4.84;100.00;101276.41;5085867;28;19960;-72
2021/03/10 06:14:46;;;;;;;;;;;;;;;-4.56;100.00;101277.03;5078567;28;20327;-71
2021/03/10 06:17:12;;;;;;;;;;;;;;;-4.55;100.00;101278.78;5080368;28;19932;-71
2021/03/10 06:19:41;;;;;;;;;;;;;;;-4.33;100.00;101278.56;5074993;28;20400;-70
2021/03/10 06:22:07;;;;;;;;;;;;;;;-3.85;100.00;101265.59;5055427;28;19973;-71
2021/03/10 06:24:33;;;;;;;;;;;;;;;-3.44;100.00;101272.13;5066697;28;19949;-72
2021/03/10 06:27:00;;;;;;;;;;;;;;;-3.03;100.00;101267.97;5070827;28;19946;-72
2021/03/10 06:29:26;;;;;;;;;;;;;;;-2.52;100.00;101269.75;5072013;28;19971;-71
2021/03/10 06:32:00;;;;;;;;;;;;;;;-2.35;100.00;101271.25;5072471;28;20582;-72
2021/03/10 06:34:26;;;;;;;;;;;;;;;-2.09;100.00;101277.81;5072076;28;19928;-72
2021/03/10 06:36:52;;;;;;;;;;;;;;;-1.43;100.00;101275.53;5085045;28;20427;-71
2021/03/10 06:39:23;;;;;;;;;;;;;;;-1.21;100.00;101274.13;5079848;28;20393;-72
2021/03/10 06:41:49;;;;;;;;;;;;;;;-0.42;100.00;101276.63;5071613;28;19928;-72
2021/03/10 06:44:16;;;;;;;;;;;;;;;-0.26;100.00;101283.31;5083168;28;19951;-71
2021/03/10 06:46:52;;;;;;;;;;;;;;;0.31;100.00;101281.69;5060648;28;19932;-72
2021/03/10 06:49:18;;;;;;;;;;;;;;;0.99;100.00;101273.38;5057361;28;19928;-73
2021/03/10 06:51:51;;;;;;;;;;;;;;;1.27;95.93;101284.03;5066138;28;19959;-72
2021/03/10 06:54:16;;;;;;;;;;;;;;;1.60;91.70;101280.25;5074414;28;20385;-72
2021/03/10 06:56:42;;;;;;;;;;;;;;;1.95;89.74;101280.78;5079263;28;19935;-72
2021/03/10 06:59:08;;;;;;;;;;;;;;;2.39;85.50;101288.97;5071100;28;19928;-72
2021/03/10 07:01:39;;;;;;;;;;;;;;;2.61;85.04;101283.69;5067391;28;19951;-72
2021/03/10 07:04:06;;;;;;;;;;;;;;;2.98;73.41;101278.63;5071571;28;19924;-71
2021/03/10 07:06:33;;;;;;;;;;;;;;;3.48;67.20;101285.53;5070711;28;19929;-72
2021/03/10 07:08:59;;;;;;;;;;;;;;;3.96;68.28;101273.59;5071204;28;19951;-72
2021/03/10 07:11:25;;;;;;;;;;;;;;;4.37;61.86;101286.09;5070914;28;20367;-72
2021/03/10 07:13:51;;;;;;;;;;;;;;;4.97;61.55;101287.72;5070084;28;19928;-72
2021/03/10 07:16:17;;;;;;;;;;;;;;;5.18;58.53;101280.41;5069381;28;19931;-72
2021/03/10 07:18:43;;;;;;;;;;;;;;;5.80;57.15;101294.34;5070799;28;20027;-73
2021/03/10 07:21:10;;;;;;;;;;;;;;;6.17;54.84;101291.53;5071048;28;19929;-73
2021/03/10 07:23:41;;;;;;;;;;;;;;;6.53;50.98;101285.97;5071393;28;20357;-72
2021/03/10 07:26:07;;;;;;;;;;;;;;;6.66;47.65;101287.97;5070772;28;19970;-72
2021/03/10 07:28:33;;;;;;;;;;;;;;;6.91;47.36;101292.88;5070965;28;19924;-72
2021/03/10 07:30:59;;;;;;;;;;;;;;;6.76;45.68;101289.22;5070864;28;20379;-72
2021/03/10 07:33:25;;;;;;;;;;;;;;;6.97;44.84;101286.25;5071206;28;19931;-72
2021/03/10 07:35:53;;;;;;;;;;;;;;;6.94;42.62;101289.13;5070090;28;19935;-72
2021/03/10 07:38:19;;;;;;;;;;;;;;;7.16;41.99;101295.03;5070957;28;19930;-72
2021/03/10 07:40:52;;;;;;;;;;;;;;;7.31;40.30;101300.47;5071057;28;20008;-72
2021/03/10 07:43:18;;;;;;;;;;;;;;;7.66;40.13;101302.94;5070633;28;19924;-72
2021/03/10 07:45:44;;;;;;;;;;;;;;;7.06;37.69;101304.63;5069612;28;19960;-72
2021/03/10 07:48:11;;;;;;;;;;;;;;;6.48;38.51;101300.66;5070555;28;19989;-71
2021/03/10 07:50:38;;;;;;;;;;;;;;;6.06;39.15;101299.34;5071001;28;19938;-72
2021/03/10 07:53:05;;;;;;;;;;;;;;;6.19;40.12;101306.69;5071023;28;20006;-72
2021/03/10 07:55:40;;;;;;;;;;;;;;;6.84;40.03;101302.25;5070170;28;20293;-72
2021/03/10 07:58:06;;;;;;;;;;;;;;;6.77;39.81;101309.81;5070377;28;19968;-72
2021/03/10 08:00:33;;;;;;;;;;;;;;;6.70;39.68;101309.28;5070439;28;19946;-72
2021/03/10 08:02:59;;;;;;;;;;;;;;;6.67;37.86;101308.63;5070158;28;19925;-72
2021/03/10 08:05:25;;;;;;;;;;;;;;;6.95;38.72;101317.84;5070649;28;19974;-72
2021/03/10 08:08:05;;;;;;;;;;;;;;;6.89;37.88;101323.59;5070419;28;19924;-71
2021/03/10 08:10:32;;;;;;;;;;;;;;;7.68;37.81;101326.22;5070813;28;20009;-71
2021/03/10 08:12:58;;;;;;;;;;;;;;;8.18;38.43;101324.09;5073497;28;19950;-72
2021/03/10 08:15:24;;;;;;;;;;;;;;;8.28;36.88;101329.81;5073931;28;20422;-72
2021/03/10 08:17:50;;;;;;;;;;;;;;;8.56;37.08;101322.69;5072681;28;19986;-72
2021/03/10 08:20:16;;;;;;;;;;;;;;;8.45;36.18;101326.09;5073281;28;19932;-72
2021/03/10 08:22:42;;;;;;;;;;;;;;;9.03;36.52;101320.59;5073803;28;19943;-71
2021/03/10 08:25:12;;;;;;;;;;;;;;;9.43;35.01;101315.25;5073625;28;19924;-71
2021/03/10 08:27:40;;;;;;;;;;;;;;;9.63;34.88;101310.34;5074191;28;19963;-72
2021/03/10 08:30:07;;;;;;;;;;;;;;;8.92;36.00;101323.16;5073896;28;19935;-72
2021/03/10 08:32:33;;;;;;;;;;;;;;;9.80;35.29;101315.47;5074553;28;19931;-71
2021/03/10 08:35:06;;;;;;;;;;;;;;;9.59;34.05;101317.81;5073891;28;20313;-72
2021/03/10 08:37:32;;;;;;;;;;;;;;;10.02;33.45;101313.97;5074015;28;19924;-72
2021/03/10 08:39:58;;;;;;;;;;;;;;;9.60;34.06;101313.28;5073925;28;19946;-72
2021/03/10 08:42:25;;;;;;;;;;;;;;;9.24;33.80;101303.94;5074113;28;19928;-71
2021/03/10 08:44:52;;;;;;;;;;;;;;;9.39;33.74;101297.47;5074101;28;19932;-71
2021/03/10 08:47:18;;;;;;;;;;;;;;;9.28;34.86;101291.91;5073793;28;20191;-71
2021/03/10 08:49:45;;;;;;;;;;;;;;;9.69;34.84;101285.53;5074031;28;19925;-72
2021/03/10 08:52:13;;;;;;;;;;;;;;;9.90;33.98;101285.91;5073964;28;20377;-72
2021/03/10 08:54:47;;;;;;;;;;;;;;;10.24;33.33;101279.94;5069934;28;20026;-71
2021/03/10 08:57:12;;;;;;;;;;;;;;;9.84;33.74;101281.75;5072425;28;19936;-72
2021/03/10 08:59:39;;;;;;;;;;;;;;;10.33;32.80;101274.72;5073906;28;20413;-71
2021/03/10 09:02:06;;;;;;;;;;;;;;;10.19;32.22;101278.41;5073626;28;19924;-71
2021/03/10 09:04:32;;;;;;;;;;;;;;;9.94;33.08;101287.44;5073867;28;20019;-72
2021/03/10 09:06:59;;;;;;;;;;;;;;;9.84;33.12;101281.75;5072087;28;19924;-71
2021/03/10 09:09:27;;;;;;;;;;;;;;;9.33;33.20;101278.94;5072117;28;20353;-71
2021/03/10 09:11:56;;;;;;;;;;;;;;;9.28;33.39;101283.78;5058621;28;19925;-71
2021/03/10 09:14:34;;;;;;;;;;;;;;;9.48;33.05;101280.59;5063306;28;19924;-71
2021/03/10 09:17:02;;;;;;;;;;;;;;;10.17;32.06;101290.38;5062386;28;19931;-71
2021/03/10 09:19:39;;;;;;;;;;;;;;;10.15;32.83;101290.44;5071497;28;20298;-71
2021/03/10 09:22:10;;;;;;;;;;;;;;;9.62;33.27;101284.19;5070981;28;19981;-71
2021/03/10 09:24:49;;;;;;;;;;;;;;;9.93;32.90;101282.97;5063105;28;19970;-71
2021/03/10 09:27:15;;;;;;;;;;;;;;;10.29;31.90;101281.34;5064339;28;20023;-71
2021/03/10 09:29:42;;;;;;;;;;;;;;;11.06;31.48;101277.63;5057050;28;19924;-71
2021/03/10 09:32:08;;;;;;;;;;;;;;;10.74;30.43;101278.16;5063207;28;19967;-71
2021/03/10 09:34:36;;;;;;;;;;;;;;;9.72;30.89;101264.47;5062551;28;19928;-71
2021/03/10 09:37:06;;;;;;;;;;;;;;;9.75;31.31;101273.41;5072879;28;19925;-71
2021/03/10 09:39:37;;;;;;;;;;;;;;;10.43;30.24;101272.25;5071193;28;19938;-71
2021/03/10 09:42:03;;;;;;;;;;;;;;;10.16;30.52;101269.63;5062667;28;19925;-71
2021/03/10 09:44:42;;;;;;;;;;;;;;;9.99;30.42;101273.53;5061411;28;19977;-71
2021/03/10 09:47:12;;;;;;;;;;;;;;;10.66;30.06;101261.56;5057045;28;19924;-72
2021/03/10 09:49:43;;;;;;;;;;;;;;;11.50;29.18;101267.94;5055002;28;19925;-71
2021/03/10 09:52:10;;;;;;;;;;;;;;;11.47;29.11;101276.34;5055841;28;19928;-71
2021/03/10 09:54:46;;;;;;;;;;;;;;;11.17;29.59;101272.25;5055027;28;19932;-71
2021/03/10 09:57:19;;;;;;;;;;;;;;;11.70;28.94;101277.31;5055657;28;20391;-71
2021/03/10 09:59:48;;;;;;;;;;;;;;;10.19;27.33;101274.84;5054963;28;19924;-72
2021/03/10 10:02:21;;;;;;;;;;;;;;;10.34;28.52;101281.00;5061954;28;19924;-71
2021/03/10 10:04:55;;;;;;;;;;;;;;;9.70;28.62;101280.00;5072194;28;19928;-71
2021/03/10 10:07:22;;;;;;;;;;;;;;;10.22;28.75;101294.47;5056958;28;20374;-71
2021/03/10 10:09:56;;;;;;;;;;;;;;;10.30;28.13;101284.91;5056690;28;19940;-71
2021/03/10 10:12:22;;;;;;;;;;;;;;;9.51;29.10;101279.50;5074340;28;20001;-72
2021/03/10 10:14:56;;;;;;;;;;;;;;;9.82;28.86;101286.44;5059311;28;19936;-71
2021/03/10 10:17:24;;;;;;;;;;;;;;;9.84;29.48;101284.47;5078655;28;20413;-71
2021/03/10 10:19:53;;;;;;;;;;;;;;;10.74;28.28;101280.88;5054500;28;19924;-71
2021/03/10 10:22:19;;;;;;;;;;;;;;;10.67;27.86;101274.16;5072473;28;19939;-71
2021/03/10 10:24:46;;;;;;;;;;;;;;;10.38;28.97;101282.56;5072952;28;19924;-71
2021/03/10 10:27:12;;;;;;;;;;;;;;;10.44;28.19;101284.84;5083537;28;20360;-71
2021/03/10 10:29:38;;;;;;;;;;;;;;;11.29;27.11;101275.03;5054995;28;20015;-72
2021/03/10 10:32:04;;;;;;;;;;;;;;;10.24;27.46;101275.38;5073702;28;20453;-71
2021/03/10 10:34:31;;;;;;;;;;;;;;;10.25;27.56;101274.41;5057453;28;20390;-71
2021/03/10 10:36:59;;;;;;;;;;;;;;;10.51;27.36;101274.41;5073143;28;19931;-71
2021/03/10 10:39:41;;;;;;;;;;;;;;;10.18;28.26;101275.81;5060006;28;20487;-71
2021/03/10 10:42:09;;;;;;;;;;;;;;;10.48;27.79;101267.34;5053964;28;19967;-71
2021/03/10 10:44:35;;;;;;;;;;;;;;;10.38;27.36;101274.41;5054245;28;19924;-70
2021/03/10 10:47:01;;;;;;;;;;;;;;;10.78;28.03;101268.78;5072593;28;19924;-71
2021/03/10 10:49:30;;;;;;;;;;;;;;;10.91;27.40;101267.91;5068001;28;19947;-71
2021/03/10 10:51:56;;;;;;;;;;;;;;;10.65;25.62;101265.25;5053990;28;20414;-71
2021/03/10 10:54:29;;;;;;;;;;;;;;;10.91;27.04;101263.34;5065491;28;19935;-71
2021/03/10 10:56:55;;;;;;;;;;;;;;;9.97;28.33;101264.66;5060441;28;20046;-71
2021/03/10 10:59:31;;;;;;;;;;;;;;;9.62;28.99;101265.22;5071936;28;20453;-71
2021/03/10 11:02:01;;;;;;;;;;;;;;;8.96;28.31;101267.84;5068788;28;19932;-71
2021/03/10 11:04:27;;;;;;;;;;;;;;;9.19;27.17;101264.47;5063575;28;19981;-71
2021/03/10 11:06:53;;;;;;;;;;;;;;;9.07;27.66;101265.28;5068302;28;19930;-71
2021/03/10 11:09:19;;;;;;;;;;;;;;;9.60;27.79;101267.19;5071760;28;19929;-71
2021/03/10 11:11:46;;;;;;;;;;;;;;;9.62;27.22;101268.81;5053835;28;19946;-72
2021/03/10 11:14:12;;;;;;;;;;;;;;;9.34;25.20;101258.97;5078104;28;20007;-71
2021/03/10 11:16:48;;;;;;;;;;;;;;;10.18;24.73;101246.84;5072082;28;19928;-71
2021/03/10 11:19:18;;;;;;;;;;;;;;;9.95;23.58;101248.47;5073099;28;19943;-71
2021/03/10 11:21:48;;;;;;;;;;;;;;;9.54;24.00;101242.25;5064996;28;20015;-72
2021/03/10 11:24:17;;;;;;;;;;;;;;;8.26;25.08;101231.66;5053473;28;20396;-72
2021/03/10 11:26:45;;;;;;;;;;;;;;;9.00;25.29;101229.59;5057745;28;20112;-72
2021/03/10 11:29:15;;;;;;;;;;;;;;;8.91;25.89;101230.22;5056785;28;19993;-71
2021/03/10 11:31:41;;;;;;;;;;;;;;;8.69;26.76;101231.63;5056660;28;19932;-71
2021/03/10 11:34:09;;;;;;;;;;;;;;;8.44;26.69;101232.31;5069691;28;19925;-71
2021/03/10 11:36:37;;;;;;;;;;;;;;;8.74;26.54;101228.63;5069835;28;19928;-71
2021/03/10 11:39:04;;;;;;;;;;;;;;;9.32;26.57;101220.28;5069586;28;19929;-71
2021/03/10 11:41:33;;;;;;;;;;;;;;;9.16;26.47;101212.34;5070205;28;19924;-71
2021/03/10 11:43:59;;;;;;;;;;;;;;;8.35;26.81;101212.16;5071050;28;20378;-71
2021/03/10 11:46:25;;;;;;;;;;;;;;;8.38;26.65;101211.09;5070537;28;20019;-73
2021/03/10 11:48:52;;;;;;;;;;;;;;;9.21;26.85;101199.34;5081516;28;19925;-71
2021/03/10 11:51:18;;;;;;;;;;;;;;;8.85;26.95;101192.75;5072415;28;19982;-71
2021/03/10 11:53:44;;;;;;;;;;;;;;;9.13;27.07;101196.31;5077530;28;20374;-71
2021/03/10 11:56:10;;;;;;;;;;;;;;;8.67;26.72;101197.50;5068368;28;19933;-71
2021/03/10 11:58:37;;;;;;;;;;;;;;;8.33;27.83;101202.41;5071905;28;21425;-70
2021/03/10 12:01:03;;;;;;;;;;;;;;;8.83;27.34;101194.66;5052949;28;19924;-71
2021/03/10 12:03:34;;;;;;;;;;;;;;;8.71;27.04;101189.09;5053129;28;19925;-71
2021/03/10 12:06:22;;;;;;;;;;;;;;;9.33;26.43;101192.25;5045975;28;20282;-71
2021/03/10 12:08:48;;;;;;;;;;;;;;;9.67;26.90;101188.06;5072493;28;19924;-72
2021/03/10 12:11:14;;;;;;;;;;;;;;;9.44;26.20;101177.94;5070622;28;20319;-72
2021/03/10 12:13:40;;;;;;;;;;;;;;;9.80;26.35;101189.91;5070685;28;19928;-71
2021/03/10 12:16:06;;;;;;;;;;;;;;;10.33;26.29;101187.03;5070061;28;19928;-71
2021/03/10 12:18:32;;;;;;;;;;;;;;;10.74;25.83;101180.41;5070634;28;19931;-72
2021/03/10 12:20:58;;;;;;;;;;;;;;;10.86;25.46;101189.47;5087342;28;19924;-71
2021/03/10 12:23:24;;;;;;;;;;;;;;;10.52;25.73;101187.44;5090391;28;19959;-71
2021/03/10 12:25:50;;;;;;;;;;;;;;;10.77;25.27;101180.19;5088348;28;19923;-71
2021/03/10 12:28:16;;;;;;;;;;;;;;;10.40;26.29;101184.78;5071907;28;19981;-71
2021/03/10 12:30:42;;;;;;;;;;;;;;;10.67;25.86;101188.13;5071107;28;19931;-71
2021/03/10 12:33:08;;;;;;;;;;;;;;;11.32;25.43;101191.41;5076581;28;20009;-72
2021/03/10 12:35:34;;;;;;;;;;;;;;;12.34;24.38;101190.72;5081634;28;20464;-71